sensor_id;sensor_type;location;lat;lon;timestamp;pressure;altitude;pressure_sealevel;temperature;humidity
68179;BME280;69812;42.632;23.440;2023-05-27T00:01:31;95194.19;;;11.09;100.00
68179;BME280;69812;42.632;23.440;2023-05-27T00:03:57;95203.94;;;11.15;100.00
68179;BME280;69812;42.632;23.440;2023-05-27T00:06:22;95189.47;;;11.24;100.00
68179;BME280;69812;42.632;23.440;2023-05-27T00:08:48;95185.66;;;11.38;100.00
68179;BME280;69812;42.632;23.440;2023-05-27T00:11:13;95185.66;;;11.38;100.00
68179;BME280;69812;42.632;23.440;2023-05-27T00:13:39;95195.66;;;11.50;100.00
68179;BME280;69812;42.632;23.440;2023-05-27T00:16:04;95174.69;;;11.45;100.00
68179;BME280;69812;42.632;23.440;2023-05-27T00:18:30;95191.06;;;11.54;100.00
68179;BME280;69812;42.632;23.440;2023-05-27T00:20:59;95168.34;;;11.40;100.00
68179;BME280;69812;42.632;23.440;2023-05-27T00:23:24;95174.69;;;11.55;100.00
68179;BME280;69812;42.632;23.440;2023-05-27T00:25:52;95169.41;;;11.57;100.00
68179;BME280;69812;42.632;23.440;2023-05-27T00:28:17;95159.25;;;11.55;100.00
68179;BME280;69812;42.632;23.440;2023-05-27T00:30:43;95167.47;;;11.68;100.00
68179;BME280;69812;42.632;23.440;2023-05-27T00:33:09;95169.91;;;11.80;100.00
68179;BME280;69812;42.632;23.440;2023-05-27T00:35:34;95175.03;;;11.89;100.00
68179;BME280;69812;42.632;23.440;2023-05-27T00:38:00;95163.88;;;12.08;100.00
68179;BME280;69812;42.632;23.440;2023-05-27T00:40:28;95157.19;;;12.16;100.00
68179;BME280;69812;42.632;23.440;2023-05-27T00:42:54;95152.34;;;12.12;100.00
68179;BME280;69812;42.632;23.440;2023-05-27T00:45:22;95149.63;;;12.14;100.00
68179;BME280;69812;42.632;23.440;2023-05-27T00:47:48;95146.91;;;12.16;100.00
68179;BME280;69812;42.632;23.440;2023-05-27T00:50:15;95143.66;;;12.13;100.00
68179;BME280;69812;42.632;23.440;2023-05-27T00:52:42;95139.91;;;12.08;100.00
68179;BME280;69812;42.632;23.440;2023-05-27T00:55:08;95137.25;;;12.00;100.00
68179;BME280;69812;42.632;23.440;2023-05-27T00:57:34;95135.75;;;11.97;100.00
68179;BME280;69812;42.632;23.440;2023-05-27T01:00:00;95133.19;;;11.97;100.00
68179;BME280;69812;42.632;23.440;2023-05-27T01:02:25;95116.00;;;11.98;100.00
68179;BME280;69812;42.632;23.440;2023-05-27T01:04:53;95113.94;;;12.01;100.00
68179;BME280;69812;42.632;23.440;2023-05-27T01:10:15;95126.53;;;12.04;100.00
68179;BME280;69812;42.632;23.440;2023-05-27T01:12:59;95124.06;;;12.12;100.00
68179;BME280;69812;42.632;23.440;2023-05-27T01:15:26;95112.56;;;12.07;100.00
68179;BME280;69812;42.632;23.440;2023-05-27T01:17:56;95106.47;;;12.08;100.00
68179;BME280;69812;42.632;23.440;2023-05-27T01:20:25;95103.84;;;12.18;100.00
68179;BME280;69812;42.632;23.440;2023-05-27T01:22:50;95107.09;;;12.20;100.00
68179;BME280;69812;42.632;23.440;2023-05-27T01:25:17;95098.69;;;12.18;100.00
68179;BME280;69812;42.632;23.440;2023-05-27T01:27:44;95090.41;;;12.24;100.00
68179;BME280;69812;42.632;23.440;2023-05-27T01:30:10;95091.50;;;12.21;100.00
68179;BME280;69812;42.632;23.440;2023-05-27T01:32:43;95093.09;;;12.04;100.00
68179;BME280;69812;42.632;23.440;2023-05-27T01:37:45;95085.69;;;11.91;100.00
68179;BME280;69812;42.632;23.440;2023-05-27T01:40:13;95076.75;;;11.86;100.00
68179;BME280;69812;42.632;23.440;2023-05-27T01:42:40;95083.00;;;11.93;100.00
68179;BME280;69812;42.632;23.440;2023-05-27T01:45:07;95069.31;;;11.83;100.00
68179;BME280;69812;42.632;23.440;2023-05-27T01:47:34;95080.94;;;11.87;100.00
68179;BME280;69812;42.632;23.440;2023-05-27T01:49:59;95077.16;;;11.81;100.00
68179;BME280;69812;42.632;23.440;2023-05-27T01:52:25;95068.19;;;11.67;100.00
68179;BME280;69812;42.632;23.440;2023-05-27T01:54:51;95082.13;;;11.65;100.00
68179;BME280;69812;42.632;23.440;2023-05-27T01:57:17;95086.72;;;11.61;100.00
68179;BME280;69812;42.632;23.440;2023-05-27T01:59:42;95087.53;;;11.62;100.00
68179;BME280;69812;42.632;23.440;2023-05-27T02:02:08;95094.00;;;11.66;100.00
68179;BME280;69812;42.632;23.440;2023-05-27T02:04:34;95091.06;;;11.61;100.00
68179;BME280;69812;42.632;23.440;2023-05-27T02:06:59;95090.63;;;11.65;100.00
68179;BME280;69812;42.632;23.440;2023-05-27T02:09:25;95083.72;;;11.66;100.00
68179;BME280;69812;42.632;23.440;2023-05-27T02:11:50;95086.53;;;11.72;100.00
68179;BME280;69812;42.632;23.440;2023-05-27T02:14:16;95080.47;;;11.74;100.00
68179;BME280;69812;42.632;23.440;2023-05-27T02:16:42;95080.97;;;11.77;100.00
68179;BME280;69812;42.632;23.440;2023-05-27T02:19:08;95086.78;;;11.79;100.00
68179;BME280;69812;42.632;23.440;2023-05-27T02:21:34;95075.03;;;11.77;100.00
68179;BME280;69812;42.632;23.440;2023-05-27T02:24:01;95074.50;;;11.73;100.00
68179;BME280;69812;42.632;23.440;2023-05-27T02:26:29;95081.28;;;11.74;100.00
68179;BME280;69812;42.632;23.440;2023-05-27T02:28:54;95088.25;;;11.82;100.00
68179;BME280;69812;42.632;23.440;2023-05-27T02:31:21;95082.31;;;11.81;100.00
68179;BME280;69812;42.632;23.440;2023-05-27T02:33:47;95082.88;;;11.75;100.00
68179;BME280;69812;42.632;23.440;2023-05-27T02:36:12;95081.38;;;11.82;100.00
68179;BME280;69812;42.632;23.440;2023-05-27T02:38:40;95086.22;;;11.95;100.00
68179;BME280;69812;42.632;23.440;2023-05-27T02:41:06;95086.91;;;11.87;100.00
68179;BME280;69812;42.632;23.440;2023-05-27T02:43:31;95080.19;;;11.77;100.00
68179;BME280;69812;42.632;23.440;2023-05-27T02:45:56;95082.75;;;11.77;100.00
68179;BME280;69812;42.632;23.440;2023-05-27T02:48:22;95086.78;;;11.79;100.00
68179;BME280;69812;42.632;23.440;2023-05-27T02:50:47;95094.38;;;11.81;100.00
68179;BME280;69812;42.632;23.440;2023-05-27T02:53:13;95088.84;;;11.76;100.00
68179;BME280;69812;42.632;23.440;2023-05-27T02:55:38;95077.59;;;11.77;100.00
68179;BME280;69812;42.632;23.440;2023-05-27T02:58:04;95076.75;;;11.86;100.00
68179;BME280;69812;42.632;23.440;2023-05-27T03:00:31;95069.31;;;11.83;100.00
68179;BME280;69812;42.632;23.440;2023-05-27T03:02:56;95073.38;;;11.95;100.00
68179;BME280;69812;42.632;23.440;2023-05-27T03:05:22;95079.25;;;12.05;100.00
68179;BME280;69812;42.632;23.440;2023-05-27T03:07:50;95052.28;;;12.09;100.00
68179;BME280;69812;42.632;23.440;2023-05-27T03:10:15;95079.34;;;12.13;100.00
68179;BME280;69812;42.632;23.440;2023-05-27T03:12:41;95085.72;;;12.09;100.00
68179;BME280;69812;42.632;23.440;2023-05-27T03:15:06;95081.03;;;12.05;100.00
68179;BME280;69812;42.632;23.440;2023-05-27T03:17:36;95095.75;;;12.12;100.00
68179;BME280;69812;42.632;23.440;2023-05-27T03:20:02;95087.06;;;12.13;100.00
68179;BME280;69812;42.632;23.440;2023-05-27T03:22:32;95073.94;;;12.17;100.00
68179;BME280;69812;42.632;23.440;2023-05-27T03:24:57;95088.41;;;12.18;100.00
68179;BME280;69812;42.632;23.440;2023-05-27T03:27:23;95082.63;;;12.33;100.00
68179;BME280;69812;42.632;23.440;2023-05-27T03:29:48;95087.19;;;12.40;100.00
68179;BME280;69812;42.632;23.440;2023-05-27T03:32:13;95078.53;;;12.41;100.00
68179;BME280;69812;42.632;23.440;2023-05-27T03:34:39;95091.06;;;12.26;100.00
68179;BME280;69812;42.632;23.440;2023-05-27T03:37:04;95090.53;;;12.22;100.00
68179;BME280;69812;42.632;23.440;2023-05-27T03:39:30;95097.88;;;12.17;100.00
68179;BME280;69812;42.632;23.440;2023-05-27T03:41:55;95097.81;;;12.27;100.00
68179;BME280;69812;42.632;23.440;2023-05-27T03:44:20;95093.31;;;12.39;100.00
68179;BME280;69812;42.632;23.440;2023-05-27T03:46:46;95104.50;;;12.47;100.00
68179;BME280;69812;42.632;23.440;2023-05-27T03:49:11;95094.47;;;12.44;100.00
68179;BME280;69812;42.632;23.440;2023-05-27T03:51:37;95105.16;;;12.49;100.00
68179;BME280;69812;42.632;23.440;2023-05-27T03:54:02;95100.66;;;12.51;100.00
68179;BME280;69812;42.632;23.440;2023-05-27T03:56:28;95098.31;;;12.58;100.00
68179;BME280;69812;42.632;23.440;2023-05-27T03:58:56;95106.97;;;12.75;100.00
68179;BME280;69812;42.632;23.440;2023-05-27T04:01:22;95103.16;;;12.79;100.00
68179;BME280;69812;42.632;23.440;2023-05-27T04:03:48;95105.47;;;12.82;100.00
68179;BME280;69812;42.632;23.440;2023-05-27T04:06:13;95116.84;;;12.98;100.00
68179;BME280;69812;42.632;23.440;2023-05-27T04:08:39;95101.63;;;13.04;100.00
68179;BME280;69812;42.632;23.440;2023-05-27T04:11:10;95103.16;;;13.15;100.00
68179;BME280;69812;42.632;23.440;2023-05-27T04:13:40;95116.16;;;13.31;100.00
68179;BME280;69812;42.632;23.440;2023-05-27T04:16:05;95120.44;;;13.41;100.00
68179;BME280;69812;42.632;23.440;2023-05-27T04:18:32;95117.25;;;13.47;100.00
68179;BME280;69812;42.632;23.440;2023-05-27T04:20:58;95108.91;;;13.53;100.00
68179;BME280;69812;42.632;23.440;2023-05-27T04:23:26;95100.69;;;13.49;100.00
68179;BME280;69812;42.632;23.440;2023-05-27T04:25:51;95100.75;;;13.66;100.00
68179;BME280;69812;42.632;23.440;2023-05-27T04:28:17;95100.34;;;13.79;100.00
68179;BME280;69812;42.632;23.440;2023-05-27T04:30:43;95107.72;;;14.00;100.00
68179;BME280;69812;42.632;23.440;2023-05-27T04:33:11;95109.09;;;14.28;100.00
68179;BME280;69812;42.632;23.440;2023-05-27T04:35:38;95111.47;;;14.56;99.90
68179;BME280;69812;42.632;23.440;2023-05-27T04:38:06;95112.94;;;14.67;98.66
68179;BME280;69812;42.632;23.440;2023-05-27T04:40:32;95123.63;;;14.80;98.29
68179;BME280;69812;42.632;23.440;2023-05-27T04:42:59;95117.97;;;14.85;98.02
68179;BME280;69812;42.632;23.440;2023-05-27T04:45:25;95112.81;;;15.01;97.71
68179;BME280;69812;42.632;23.440;2023-05-27T04:47:53;95118.78;;;15.26;97.56
68179;BME280;69812;42.632;23.440;2023-05-27T04:50:18;95115.22;;;15.52;96.84
68179;BME280;69812;42.632;23.440;2023-05-27T04:52:44;95107.94;;;15.72;94.94
68179;BME280;69812;42.632;23.440;2023-05-27T04:55:10;95121.81;;;15.63;93.32
68179;BME280;69812;42.632;23.440;2023-05-27T04:57:36;95114.41;;;15.59;93.53
68179;BME280;69812;42.632;23.440;2023-05-27T05:00:03;95112.78;;;15.67;92.18
68179;BME280;69812;42.632;23.440;2023-05-27T05:02:34;95122.31;;;15.66;92.33
68179;BME280;69812;42.632;23.440;2023-05-27T05:07:28;95124.41;;;15.54;90.96
68179;BME280;69812;42.632;23.440;2023-05-27T05:09:56;95132.19;;;15.63;90.17
68179;BME280;69812;42.632;23.440;2023-05-27T05:12:26;95131.22;;;15.55;90.44
68179;BME280;69812;42.632;23.440;2023-05-27T05:14:52;95124.25;;;15.64;90.35
68179;BME280;69812;42.632;23.440;2023-05-27T05:17:18;95112.44;;;15.86;89.48
68179;BME280;69812;42.632;23.440;2023-05-27T05:19:44;95108.72;;;16.59;91.89
68179;BME280;69812;42.632;23.440;2023-05-27T05:22:10;95126.91;;;16.82;88.87
68179;BME280;69812;42.632;23.440;2023-05-27T05:24:38;95117.28;;;16.91;87.40
68179;BME280;69812;42.632;23.440;2023-05-27T05:27:03;95132.75;;;17.08;85.20
68179;BME280;69812;42.632;23.440;2023-05-27T05:29:31;95127.91;;;17.04;81.75
68179;BME280;69812;42.632;23.440;2023-05-27T05:31:56;95113.13;;;16.82;80.81
68179;BME280;69812;42.632;23.440;2023-05-27T05:34:21;95125.06;;;16.60;81.51
68179;BME280;69812;42.632;23.440;2023-05-27T05:36:47;95134.06;;;16.41;82.81
68179;BME280;69812;42.632;23.440;2023-05-27T05:39:14;95133.00;;;16.27;82.90
68179;BME280;69812;42.632;23.440;2023-05-27T05:41:40;95133.06;;;16.02;83.20
68179;BME280;69812;42.632;23.440;2023-05-27T05:44:06;95116.44;;;15.97;82.32
68179;BME280;69812;42.632;23.440;2023-05-27T05:46:31;95146.66;;;16.05;82.42
68179;BME280;69812;42.632;23.440;2023-05-27T05:48:57;95139.00;;;16.19;83.25
68179;BME280;69812;42.632;23.440;2023-05-27T05:51:22;95145.41;;;16.40;83.03
68179;BME280;69812;42.632;23.440;2023-05-27T05:53:47;95153.53;;;16.68;83.53
68179;BME280;69812;42.632;23.440;2023-05-27T05:56:13;95147.38;;;17.00;83.65
68179;BME280;69812;42.632;23.440;2023-05-27T05:58:38;95145.94;;;17.21;82.94
68179;BME280;69812;42.632;23.440;2023-05-27T06:01:06;95148.88;;;17.56;81.85
68179;BME280;69812;42.632;23.440;2023-05-27T06:03:32;95146.47;;;17.69;78.76
68179;BME280;69812;42.632;23.440;2023-05-27T06:05:57;95159.28;;;17.94;76.64
68179;BME280;69812;42.632;23.440;2023-05-27T06:08:23;95145.94;;;18.26;76.00
68179;BME280;69812;42.632;23.440;2023-05-27T06:10:49;95161.81;;;18.68;76.15
68179;BME280;69812;42.632;23.440;2023-05-27T06:13:14;95161.59;;;18.84;73.99
68179;BME280;69812;42.632;23.440;2023-05-27T06:15:39;95158.69;;;18.58;71.77
68179;BME280;69812;42.632;23.440;2023-05-27T06:18:08;95163.81;;;18.51;72.50
68179;BME280;69812;42.632;23.440;2023-05-27T06:20:35;95162.75;;;18.45;72.05
68179;BME280;69812;42.632;23.440;2023-05-27T06:23:01;95156.22;;;18.35;74.06
68179;BME280;69812;42.632;23.440;2023-05-27T06:25:28;95166.72;;;18.26;74.43
68179;BME280;69812;42.632;23.440;2023-05-27T06:27:57;95164.47;;;18.09;74.17
68179;BME280;69812;42.632;23.440;2023-05-27T06:30:22;95163.72;;;18.00;73.64
68179;BME280;69812;42.632;23.440;2023-05-27T06:32:47;95149.22;;;17.91;73.18
68179;BME280;69812;42.632;23.440;2023-05-27T06:35:13;95165.53;;;18.14;72.93
68179;BME280;69812;42.632;23.440;2023-05-27T06:37:38;95176.38;;;18.18;73.49
68179;BME280;69812;42.632;23.440;2023-05-27T06:40:04;95163.13;;;18.27;73.18
68179;BME280;69812;42.632;23.440;2023-05-27T06:42:29;95183.25;;;18.55;70.71
68179;BME280;69812;42.632;23.440;2023-05-27T06:44:55;95180.56;;;18.63;68.49
68179;BME280;69812;42.632;23.440;2023-05-27T06:47:21;95172.47;;;18.73;67.82
68179;BME280;69812;42.632;23.440;2023-05-27T06:49:46;95174.31;;;18.94;65.77
68179;BME280;69812;42.632;23.440;2023-05-27T06:52:11;95182.03;;;19.24;65.62
68179;BME280;69812;42.632;23.440;2023-05-27T06:54:39;95178.56;;;19.38;65.30
68179;BME280;69812;42.632;23.440;2023-05-27T06:57:04;95181.59;;;19.63;64.99
68179;BME280;69812;42.632;23.440;2023-05-27T06:59:30;95177.69;;;19.74;65.25
68179;BME280;69812;42.632;23.440;2023-05-27T07:01:55;95182.75;;;19.82;64.43
68179;BME280;69812;42.632;23.440;2023-05-27T07:04:21;95180.53;;;19.79;64.02
68179;BME280;69812;42.632;23.440;2023-05-27T07:06:49;95172.78;;;19.93;63.84
68179;BME280;69812;42.632;23.440;2023-05-27T07:09:15;95168.38;;;20.21;63.23
68179;BME280;69812;42.632;23.440;2023-05-27T07:11:41;95174.66;;;20.34;62.11
68179;BME280;69812;42.632;23.440;2023-05-27T07:14:06;95177.31;;;20.47;62.00
68179;BME280;69812;42.632;23.440;2023-05-27T07:16:34;95184.41;;;20.60;61.04
68179;BME280;69812;42.632;23.440;2023-05-27T07:19:00;95166.13;;;20.53;61.88
68179;BME280;69812;42.632;23.440;2023-05-27T07:21:25;95179.41;;;21.20;60.61
68179;BME280;69812;42.632;23.440;2023-05-27T07:23:51;95172.84;;;21.64;59.32
68179;BME280;69812;42.632;23.440;2023-05-27T07:26:16;95178.06;;;21.90;56.78
68179;BME280;69812;42.632;23.440;2023-05-27T07:28:41;95178.22;;;22.15;57.32
68179;BME280;69812;42.632;23.440;2023-05-27T07:31:09;95179.94;;;22.55;54.96
68179;BME280;69812;42.632;23.440;2023-05-27T07:33:34;95177.41;;;22.87;54.06
68179;BME280;69812;42.632;23.440;2023-05-27T07:36:00;95184.78;;;23.42;52.53
68179;BME280;69812;42.632;23.440;2023-05-27T07:38:25;95186.25;;;23.63;50.56
68179;BME280;69812;42.632;23.440;2023-05-27T07:40:51;95189.41;;;23.71;52.23
68179;BME280;69812;42.632;23.440;2023-05-27T07:43:16;95188.72;;;24.08;50.05
68179;BME280;69812;42.632;23.440;2023-05-27T07:45:41;95178.25;;;24.08;49.33
68179;BME280;69812;42.632;23.440;2023-05-27T07:48:07;95185.38;;;23.75;49.60
68179;BME280;69812;42.632;23.440;2023-05-27T07:50:32;95185.53;;;23.81;49.97
68179;BME280;69812;42.632;23.440;2023-05-27T07:55:23;95192.00;;;23.46;49.67
68179;BME280;69812;42.632;23.440;2023-05-27T07:57:48;95195.94;;;23.30;50.83
68179;BME280;69812;42.632;23.440;2023-05-27T08:00:14;95195.06;;;23.05;51.62
68179;BME280;69812;42.632;23.440;2023-05-27T08:02:39;95194.44;;;22.51;51.03
68179;BME280;69812;42.632;23.440;2023-05-27T08:05:05;95188.09;;;22.00;52.41
68179;BME280;69812;42.632;23.440;2023-05-27T08:07:30;95189.72;;;21.74;54.70
68179;BME280;69812;42.632;23.440;2023-05-27T08:09:59;95179.88;;;21.43;56.06
68179;BME280;69812;42.632;23.440;2023-05-27T08:12:24;95194.47;;;21.24;56.45
68179;BME280;69812;42.632;23.440;2023-05-27T08:14:50;95193.81;;;21.02;56.15
68179;BME280;69812;42.632;23.440;2023-05-27T08:17:15;95191.19;;;21.02;56.51
68179;BME280;69812;42.632;23.440;2023-05-27T08:19:41;95193.00;;;20.95;55.53
68179;BME280;69812;42.632;23.440;2023-05-27T08:22:06;95190.78;;;21.05;56.21
68179;BME280;69812;42.632;23.440;2023-05-27T08:24:35;95189.63;;;21.15;56.26
68179;BME280;69812;42.632;23.440;2023-05-27T08:27:00;95203.22;;;21.03;55.91
68179;BME280;69812;42.632;23.440;2023-05-27T08:29:28;95201.81;;;21.01;56.46
68179;BME280;69812;42.632;23.440;2023-05-27T08:31:55;95188.72;;;20.81;57.45
68179;BME280;69812;42.632;23.440;2023-05-27T08:34:21;95189.44;;;20.61;57.80
68179;BME280;69812;42.632;23.440;2023-05-27T08:36:50;95192.81;;;20.20;57.44
68179;BME280;69812;42.632;23.440;2023-05-27T08:39:15;95188.03;;;20.24;58.12
68179;BME280;69812;42.632;23.440;2023-05-27T08:41:41;95197.56;;;20.45;58.62
68179;BME280;69812;42.632;23.440;2023-05-27T08:44:07;95193.97;;;20.46;58.27
68179;BME280;69812;42.632;23.440;2023-05-27T08:46:33;95188.66;;;20.61;58.49
68179;BME280;69812;42.632;23.440;2023-05-27T08:48:59;95192.13;;;20.75;57.90
68179;BME280;69812;42.632;23.440;2023-05-27T08:51:25;95186.94;;;20.95;56.17
68179;BME280;69812;42.632;23.440;2023-05-27T08:53:51;95191.84;;;21.24;55.95
68179;BME280;69812;42.632;23.440;2023-05-27T08:56:20;95182.91;;;21.73;54.53
68179;BME280;69812;42.632;23.440;2023-05-27T08:58:47;95185.06;;;22.03;53.18
68179;BME280;69812;42.632;23.440;2023-05-27T09:01:16;95195.69;;;22.42;52.39
68179;BME280;69812;42.632;23.440;2023-05-27T09:03:41;95180.47;;;23.22;51.05
68179;BME280;69812;42.632;23.440;2023-05-27T09:06:10;95187.63;;;23.97;47.39
68179;BME280;69812;42.632;23.440;2023-05-27T09:08:36;95184.72;;;24.49;42.79
68179;BME280;69812;42.632;23.440;2023-05-27T09:11:02;95183.13;;;24.41;45.93
68179;BME280;69812;42.632;23.440;2023-05-27T09:13:31;95177.03;;;25.14;44.81
68179;BME280;69812;42.632;23.440;2023-05-27T09:16:00;95173.16;;;25.59;43.86
68179;BME280;69812;42.632;23.440;2023-05-27T09:18:29;95175.56;;;26.78;39.82
68179;BME280;69812;42.632;23.440;2023-05-27T09:20:55;95173.81;;;27.13;38.24
68179;BME280;69812;42.632;23.440;2023-05-27T09:23:21;95170.44;;;27.00;37.24
68179;BME280;69812;42.632;23.440;2023-05-27T09:25:46;95176.06;;;27.50;36.16
68179;BME280;69812;42.632;23.440;2023-05-27T09:28:22;95166.34;;;26.40;38.29
68179;BME280;69812;42.632;23.440;2023-05-27T09:31:01;95164.06;;;27.25;36.00
68179;BME280;69812;42.632;23.440;2023-05-27T09:33:31;95159.97;;;28.36;35.79
68179;BME280;69812;42.632;23.440;2023-05-27T09:35:59;95151.91;;;28.86;33.30
68179;BME280;69812;42.632;23.440;2023-05-27T09:38:33;95159.31;;;29.12;33.48
68179;BME280;69812;42.632;23.440;2023-05-27T09:40:59;95158.28;;;28.30;35.51
68179;BME280;69812;42.632;23.440;2023-05-27T09:43:26;95158.66;;;27.99;34.85
68179;BME280;69812;42.632;23.440;2023-05-27T09:45:58;95150.69;;;27.94;36.60
68179;BME280;69812;42.632;23.440;2023-05-27T09:48:25;95153.94;;;28.18;36.45
68179;BME280;69812;42.632;23.440;2023-05-27T09:50:52;95159.25;;;27.68;35.70
68179;BME280;69812;42.632;23.440;2023-05-27T09:53:20;95153.53;;;27.25;35.78
68179;BME280;69812;42.632;23.440;2023-05-27T09:55:48;95147.91;;;26.93;36.07
68179;BME280;69812;42.632;23.440;2023-05-27T09:58:14;95148.97;;;28.22;35.21
68179;BME280;69812;42.632;23.440;2023-05-27T10:00:42;95149.00;;;28.44;34.53
68179;BME280;69812;42.632;23.440;2023-05-27T10:03:12;95154.03;;;28.06;35.97
68179;BME280;69812;42.632;23.440;2023-05-27T10:05:41;95144.44;;;28.17;36.81
68179;BME280;69812;42.632;23.440;2023-05-27T10:08:10;95159.31;;;28.06;37.57
68179;BME280;69812;42.632;23.440;2023-05-27T10:10:36;95148.97;;;26.39;38.86
68179;BME280;69812;42.632;23.440;2023-05-27T10:13:02;95141.56;;;26.25;38.37
68179;BME280;69812;42.632;23.440;2023-05-27T10:15:31;95152.97;;;26.94;38.30
68179;BME280;69812;42.632;23.440;2023-05-27T10:18:03;95149.75;;;26.92;37.42
68179;BME280;69812;42.632;23.440;2023-05-27T10:20:31;95143.28;;;26.83;40.19
68179;BME280;69812;42.632;23.440;2023-05-27T10:25:39;95132.69;;;26.95;37.76
68179;BME280;69812;42.632;23.440;2023-05-27T10:28:05;95142.41;;;26.54;37.99
68179;BME280;69812;42.632;23.440;2023-05-27T10:30:42;95141.88;;;24.55;40.02
68179;BME280;69812;42.632;23.440;2023-05-27T10:33:08;95137.69;;;25.26;40.79
68179;BME280;69812;42.632;23.440;2023-05-27T10:35:43;95151.16;;;24.88;40.70
68179;BME280;69812;42.632;23.440;2023-05-27T10:38:17;95141.78;;;24.25;42.42
68179;BME280;69812;42.632;23.440;2023-05-27T10:40:45;95136.53;;;23.81;42.75
68179;BME280;69812;42.632;23.440;2023-05-27T10:43:18;95120.50;;;23.21;43.55
68179;BME280;69812;42.632;23.440;2023-05-27T10:45:44;95133.69;;;23.32;44.48
68179;BME280;69812;42.632;23.440;2023-05-27T10:48:17;95133.09;;;23.30;45.44
68179;BME280;69812;42.632;23.440;2023-05-27T10:50:50;95127.06;;;23.80;45.10
68179;BME280;69812;42.632;23.440;2023-05-27T10:53:19;95130.25;;;23.57;44.76
68179;BME280;69812;42.632;23.440;2023-05-27T10:55:47;95129.94;;;23.72;44.31
68179;BME280;69812;42.632;23.440;2023-05-27T10:58:18;95123.53;;;24.11;43.48
68179;BME280;69812;42.632;23.440;2023-05-27T11:00:48;95116.75;;;23.85;43.66
68179;BME280;69812;42.632;23.440;2023-05-27T11:03:22;95134.09;;;23.86;43.52
68179;BME280;69812;42.632;23.440;2023-05-27T11:08:24;95118.50;;;24.65;42.30
68179;BME280;69812;42.632;23.440;2023-05-27T11:10:49;95111.09;;;25.23;43.54
68179;BME280;69812;42.632;23.440;2023-05-27T11:13:15;95107.91;;;24.90;42.58
68179;BME280;69812;42.632;23.440;2023-05-27T11:15:40;95111.34;;;25.56;40.97
68179;BME280;69812;42.632;23.440;2023-05-27T11:18:07;95099.25;;;26.14;39.62
68179;BME280;69812;42.632;23.440;2023-05-27T11:20:37;95107.22;;;25.37;40.75
68179;BME280;69812;42.632;23.440;2023-05-27T11:23:06;95107.00;;;25.27;40.64
68179;BME280;69812;42.632;23.440;2023-05-27T11:25:42;95095.84;;;25.13;41.03
68179;BME280;69812;42.632;23.440;2023-05-27T11:28:17;95098.78;;;25.47;40.76
68179;BME280;69812;42.632;23.440;2023-05-27T11:30:45;95079.59;;;24.92;42.27
68179;BME280;69812;42.632;23.440;2023-05-27T11:33:10;95098.28;;;24.17;42.18
68179;BME280;69812;42.632;23.440;2023-05-27T11:35:36;95096.91;;;24.82;43.04
68179;BME280;69812;42.632;23.440;2023-05-27T11:38:01;95089.66;;;25.85;40.98
68179;BME280;69812;42.632;23.440;2023-05-27T11:40:34;95079.69;;;26.62;39.33
68179;BME280;69812;42.632;23.440;2023-05-27T11:43:00;95073.31;;;26.58;39.45
68179;BME280;69812;42.632;23.440;2023-05-27T11:45:27;95080.63;;;26.04;39.05
68179;BME280;69812;42.632;23.440;2023-05-27T11:47:52;95072.13;;;24.77;41.15
68179;BME280;69812;42.632;23.440;2023-05-27T11:50:24;95081.53;;;23.99;43.17
68179;BME280;69812;42.632;23.440;2023-05-27T11:52:53;95070.13;;;24.43;42.11
68179;BME280;69812;42.632;23.440;2023-05-27T11:55:24;95054.97;;;25.05;42.05
68179;BME280;69812;42.632;23.440;2023-05-27T11:57:52;95062.34;;;24.85;41.02
68179;BME280;69812;42.632;23.440;2023-05-27T12:00:18;95065.13;;;24.59;42.55
68179;BME280;69812;42.632;23.440;2023-05-27T12:02:44;95066.66;;;24.30;42.24
68179;BME280;69812;42.632;23.440;2023-05-27T12:05:12;95052.13;;;24.65;41.98
68179;BME280;69812;42.632;23.440;2023-05-27T12:07:37;95057.72;;;25.10;41.78
68179;BME280;69812;42.632;23.440;2023-05-27T12:10:06;95056.78;;;24.14;43.36
68179;BME280;69812;42.632;23.440;2023-05-27T12:12:32;95058.41;;;23.28;44.67
68179;BME280;69812;42.632;23.440;2023-05-27T12:15:00;95048.69;;;22.33;47.26
68179;BME280;69812;42.632;23.440;2023-05-27T12:17:25;95040.16;;;23.40;45.22
68179;BME280;69812;42.632;23.440;2023-05-27T12:19:50;95039.00;;;23.97;41.47
68179;BME280;69812;42.632;23.440;2023-05-27T12:22:16;95042.53;;;24.40;43.72
68179;BME280;69812;42.632;23.440;2023-05-27T12:24:41;95033.22;;;25.52;41.68
68179;BME280;69812;42.632;23.440;2023-05-27T12:27:06;95032.84;;;26.07;40.51
68179;BME280;69812;42.632;23.440;2023-05-27T12:29:33;95024.31;;;25.88;39.25
68179;BME280;69812;42.632;23.440;2023-05-27T12:31:59;95022.06;;;24.49;40.75
68179;BME280;69812;42.632;23.440;2023-05-27T12:34:25;95024.78;;;24.24;41.98
68179;BME280;69812;42.632;23.440;2023-05-27T12:36:50;95012.75;;;23.42;43.26
68179;BME280;69812;42.632;23.440;2023-05-27T12:39:16;95012.25;;;23.27;44.54
68179;BME280;69812;42.632;23.440;2023-05-27T12:41:42;95016.22;;;22.86;45.45
68179;BME280;69812;42.632;23.440;2023-05-27T12:44:10;95000.94;;;22.51;45.87
68179;BME280;69812;42.632;23.440;2023-05-27T12:46:38;95010.84;;;21.97;46.21
68179;BME280;69812;42.632;23.440;2023-05-27T12:49:03;95007.94;;;21.33;48.03
68179;BME280;69812;42.632;23.440;2023-05-27T12:51:29;94996.06;;;21.58;48.21
68179;BME280;69812;42.632;23.440;2023-05-27T12:53:55;94995.50;;;21.29;49.01
68179;BME280;69812;42.632;23.440;2023-05-27T12:56:21;94983.66;;;21.20;48.88
68179;BME280;69812;42.632;23.440;2023-05-27T12:58:47;94993.91;;;20.88;50.82